sensor_id;sensor_type;location;lat;lon;timestamp;temperature;humidity
21612;DHT22;47005;52.292;13.452;2023-02-02T00:02:04;5.40;99.90
21612;DHT22;47005;52.292;13.452;2023-02-02T00:04:33;5.40;99.90
21612;DHT22;47005;52.292;13.452;2023-02-02T00:06:59;5.40;99.90
21612;DHT22;47005;52.292;13.452;2023-02-02T00:09:28;5.40;99.90
21612;DHT22;47005;52.292;13.452;2023-02-02T00:11:54;5.40;99.90
21612;DHT22;47005;52.292;13.452;2023-02-02T00:14:21;5.40;99.90
21612;DHT22;47005;52.292;13.452;2023-02-02T00:16:54;5.40;99.90
21612;DHT22;47005;52.292;13.452;2023-02-02T00:19:22;5.40;99.90
21612;DHT22;47005;52.292;13.452;2023-02-02T00:21:49;5.40;99.90
21612;DHT22;47005;52.292;13.452;2023-02-02T00:24:16;5.50;99.90
21612;DHT22;47005;52.292;13.452;2023-02-02T00:26:47;5.50;99.90
21612;DHT22;47005;52.292;13.452;2023-02-02T00:29:22;5.50;99.90
21612;DHT22;47005;52.292;13.452;2023-02-02T00:31:49;5.50;99.90
21612;DHT22;47005;52.292;13.452;2023-02-02T00:34:15;5.50;99.90
21612;DHT22;47005;52.292;13.452;2023-02-02T00:36:42;5.60;99.90
21612;DHT22;47005;52.292;13.452;2023-02-02T00:39:17;5.50;99.90
21612;DHT22;47005;52.292;13.452;2023-02-02T00:41:43;5.50;99.90
21612;DHT22;47005;52.292;13.452;2023-02-02T00:44:09;5.60;99.90
21612;DHT22;47005;52.292;13.452;2023-02-02T00:46:53;5.60;99.90
21612;DHT22;47005;52.292;13.452;2023-02-02T00:49:18;5.60;99.90
21612;DHT22;47005;52.292;13.452;2023-02-02T00:51:44;5.70;99.90
21612;DHT22;47005;52.292;13.452;2023-02-02T00:54:09;5.60;99.90
21612;DHT22;47005;52.292;13.452;2023-02-02T00:56:35;5.70;99.90
21612;DHT22;47005;52.292;13.452;2023-02-02T00:59:01;5.70;99.90
21612;DHT22;47005;52.292;13.452;2023-02-02T01:01:27;5.70;99.90
21612;DHT22;47005;52.292;13.452;2023-02-02T01:03:53;5.80;99.90
21612;DHT22;47005;52.292;13.452;2023-02-02T01:06:18;5.80;99.90
21612;DHT22;47005;52.292;13.452;2023-02-02T01:08:44;5.70;99.90
21612;DHT22;47005;52.292;13.452;2023-02-02T01:11:10;5.80;99.90
21612;DHT22;47005;52.292;13.452;2023-02-02T01:13:35;5.80;99.90
21612;DHT22;47005;52.292;13.452;2023-02-02T01:16:02;5.80;99.90
21612;DHT22;47005;52.292;13.452;2023-02-02T01:18:28;5.80;99.90
21612;DHT22;47005;52.292;13.452;2023-02-02T01:21:04;5.80;99.90
21612;DHT22;47005;52.292;13.452;2023-02-02T01:23:30;5.80;99.90
21612;DHT22;47005;52.292;13.452;2023-02-02T01:25:58;5.80;99.90
21612;DHT22;47005;52.292;13.452;2023-02-02T01:28:25;5.80;99.90
21612;DHT22;47005;52.292;13.452;2023-02-02T01:30:51;5.80;99.90
21612;DHT22;47005;52.292;13.452;2023-02-02T01:33:17;5.80;99.90
21612;DHT22;47005;52.292;13.452;2023-02-02T01:36:10;5.90;99.90
21612;DHT22;47005;52.292;13.452;2023-02-02T01:38:36;5.90;99.90
21612;DHT22;47005;52.292;13.452;2023-02-02T01:41:02;5.90;99.90
21612;DHT22;47005;52.292;13.452;2023-02-02T01:46:29;5.90;99.90
21612;DHT22;47005;52.292;13.452;2023-02-02T01:51:49;5.90;99.90
21612;DHT22;47005;52.292;13.452;2023-02-02T01:54:31;5.90;99.90
21612;DHT22;47005;52.292;13.452;2023-02-02T01:57:26;5.90;99.90
21612;DHT22;47005;52.292;13.452;2023-02-02T01:59:53;6.00;99.90
21612;DHT22;47005;52.292;13.452;2023-02-02T02:02:20;6.00;99.90
21612;DHT22;47005;52.292;13.452;2023-02-02T02:04:47;6.00;99.90
21612;DHT22;47005;52.292;13.452;2023-02-02T02:07:14;6.00;99.90
21612;DHT22;47005;52.292;13.452;2023-02-02T02:09:39;6.00;99.90
21612;DHT22;47005;52.292;13.452;2023-02-02T02:12:13;5.90;99.90
21612;DHT22;47005;52.292;13.452;2023-02-02T02:14:41;5.90;99.90
21612;DHT22;47005;52.292;13.452;2023-02-02T02:20:38;5.90;99.90
21612;DHT22;47005;52.292;13.452;2023-02-02T02:40:36;5.80;99.90
21612;DHT22;47005;52.292;13.452;2023-02-02T02:43:49;5.80;99.90
21612;DHT22;47005;52.292;13.452;2023-02-02T02:45:56;5.80;99.90
21612;DHT22;47005;52.292;13.452;2023-02-02T02:48:21;5.80;99.90
21612;DHT22;47005;52.292;13.452;2023-02-02T02:50:47;5.80;99.90
21612;DHT22;47005;52.292;13.452;2023-02-02T02:53:16;5.70;99.90
21612;DHT22;47005;52.292;13.452;2023-02-02T02:58:48;5.80;99.90
21612;DHT22;47005;52.292;13.452;2023-02-02T03:01:32;5.80;99.90
21612;DHT22;47005;52.292;13.452;2023-02-02T03:04:32;5.80;99.90
21612;DHT22;47005;52.292;13.452;2023-02-02T03:07:27;5.90;99.90
21612;DHT22;47005;52.292;13.452;2023-02-02T03:09:55;5.90;99.90
21612;DHT22;47005;52.292;13.452;2023-02-02T03:12:21;5.90;99.90
21612;DHT22;47005;52.292;13.452;2023-02-02T03:14:47;5.90;99.90
21612;DHT22;47005;52.292;13.452;2023-02-02T03:17:12;5.90;99.90
21612;DHT22;47005;52.292;13.452;2023-02-02T03:19:38;5.90;99.90
21612;DHT22;47005;52.292;13.452;2023-02-02T03:22:03;5.90;99.90
21612;DHT22;47005;52.292;13.452;2023-02-02T03:24:29;5.90;99.90
21612;DHT22;47005;52.292;13.452;2023-02-02T03:26:55;5.90;99.90
21612;DHT22;47005;52.292;13.452;2023-02-02T03:29:20;5.80;99.90
21612;DHT22;47005;52.292;13.452;2023-02-02T03:31:46;5.80;99.90
21612;DHT22;47005;52.292;13.452;2023-02-02T03:34:12;5.80;99.90
21612;DHT22;47005;52.292;13.452;2023-02-02T03:36:37;5.80;99.90
21612;DHT22;47005;52.292;13.452;2023-02-02T03:39:03;5.80;99.90
21612;DHT22;47005;52.292;13.452;2023-02-02T03:41:29;5.80;99.90
21612;DHT22;47005;52.292;13.452;2023-02-02T03:43:54;5.80;99.90
21612;DHT22;47005;52.292;13.452;2023-02-02T03:46:20;5.80;99.90
21612;DHT22;47005;52.292;13.452;2023-02-02T03:48:45;5.80;99.90
21612;DHT22;47005;52.292;13.452;2023-02-02T03:51:13;5.80;99.90
21612;DHT22;47005;52.292;13.452;2023-02-02T03:53:40;5.70;99.90
21612;DHT22;47005;52.292;13.452;2023-02-02T03:56:09;5.80;99.90
21612;DHT22;47005;52.292;13.452;2023-02-02T03:58:35;5.80;99.90
21612;DHT22;47005;52.292;13.452;2023-02-02T04:01:09;5.80;99.90
21612;DHT22;47005;52.292;13.452;2023-02-02T04:03:35;5.80;99.90
21612;DHT22;47005;52.292;13.452;2023-02-02T04:06:01;5.80;99.90
21612;DHT22;47005;52.292;13.452;2023-02-02T04:08:27;5.80;99.90
21612;DHT22;47005;52.292;13.452;2023-02-02T04:10:53;5.90;99.90
21612;DHT22;47005;52.292;13.452;2023-02-02T04:13:19;5.90;99.90
21612;DHT22;47005;52.292;13.452;2023-02-02T04:15:44;5.90;99.90
21612;DHT22;47005;52.292;13.452;2023-02-02T04:18:10;5.90;99.90
21612;DHT22;47005;52.292;13.452;2023-02-02T04:20:35;5.90;99.90
21612;DHT22;47005;52.292;13.452;2023-02-02T04:23:01;5.90;99.90
21612;DHT22;47005;52.292;13.452;2023-02-02T04:25:27;5.90;99.90
21612;DHT22;47005;52.292;13.452;2023-02-02T04:27:52;5.90;99.90
21612;DHT22;47005;52.292;13.452;2023-02-02T04:30:18;5.90;99.90
21612;DHT22;47005;52.292;13.452;2023-02-02T04:32:47;5.90;99.90
21612;DHT22;47005;52.292;13.452;2023-02-02T04:35:12;5.90;99.90
21612;DHT22;47005;52.292;13.452;2023-02-02T04:37:38;5.90;99.90
21612;DHT22;47005;52.292;13.452;2023-02-02T04:40:04;5.90;99.90
21612;DHT22;47005;52.292;13.452;2023-02-02T04:42:30;5.90;99.90
21612;DHT22;47005;52.292;13.452;2023-02-02T04:44:57;5.90;99.90
21612;DHT22;47005;52.292;13.452;2023-02-02T04:47:22;5.90;99.90
21612;DHT22;47005;52.292;13.452;2023-02-02T04:49:48;6.00;99.90
21612;DHT22;47005;52.292;13.452;2023-02-02T04:52:14;6.00;99.90
21612;DHT22;47005;52.292;13.452;2023-02-02T04:54:40;6.00;99.90
21612;DHT22;47005;52.292;13.452;2023-02-02T04:57:05;6.00;99.90
21612;DHT22;47005;52.292;13.452;2023-02-02T04:59:31;6.00;99.90
21612;DHT22;47005;52.292;13.452;2023-02-02T05:02:00;6.00;99.90
21612;DHT22;47005;52.292;13.452;2023-02-02T05:04:26;6.00;99.90
21612;DHT22;47005;52.292;13.452;2023-02-02T05:06:52;6.00;99.90
21612;DHT22;47005;52.292;13.452;2023-02-02T05:09:17;6.00;99.90
21612;DHT22;47005;52.292;13.452;2023-02-02T05:11:43;6.00;99.90
21612;DHT22;47005;52.292;13.452;2023-02-02T05:14:09;6.10;99.90
21612;DHT22;47005;52.292;13.452;2023-02-02T05:16:35;6.10;99.90
21612;DHT22;47005;52.292;13.452;2023-02-02T05:19:01;6.00;99.90
21612;DHT22;47005;52.292;13.452;2023-02-02T05:21:27;6.10;99.90
21612;DHT22;47005;52.292;13.452;2023-02-02T05:23:52;6.10;99.90
21612;DHT22;47005;52.292;13.452;2023-02-02T05:26:24;6.10;99.90
21612;DHT22;47005;52.292;13.452;2023-02-02T05:28:50;6.10;99.90
21612;DHT22;47005;52.292;13.452;2023-02-02T05:31:16;6.10;99.90
21612;DHT22;47005;52.292;13.452;2023-02-02T05:33:42;6.10;99.90
21612;DHT22;47005;52.292;13.452;2023-02-02T05:36:07;6.10;99.90
21612;DHT22;47005;52.292;13.452;2023-02-02T05:38:33;6.10;99.90
21612;DHT22;47005;52.292;13.452;2023-02-02T05:41:00;6.10;99.90
21612;DHT22;47005;52.292;13.452;2023-02-02T05:43:27;6.10;99.90
21612;DHT22;47005;52.292;13.452;2023-02-02T05:45:53;6.10;99.90
21612;DHT22;47005;52.292;13.452;2023-02-02T05:48:19;6.10;99.90
21612;DHT22;47005;52.292;13.452;2023-02-02T05:50:53;6.10;99.90
21612;DHT22;47005;52.292;13.452;2023-02-02T05:53:20;6.10;99.90
21612;DHT22;47005;52.292;13.452;2023-02-02T05:55:46;6.10;99.90
21612;DHT22;47005;52.292;13.452;2023-02-02T05:58:11;6.10;99.90
21612;DHT22;47005;52.292;13.452;2023-02-02T06:00:37;6.10;99.90
21612;DHT22;47005;52.292;13.452;2023-02-02T06:03:03;6.10;99.90
21612;DHT22;47005;52.292;13.452;2023-02-02T06:05:28;6.10;99.90
21612;DHT22;47005;52.292;13.452;2023-02-02T06:07:54;6.10;99.90
21612;DHT22;47005;52.292;13.452;2023-02-02T06:10:19;6.20;99.90
21612;DHT22;47005;52.292;13.452;2023-02-02T06:12:45;6.20;99.90
21612;DHT22;47005;52.292;13.452;2023-02-02T06:15:11;6.20;99.90
21612;DHT22;47005;52.292;13.452;2023-02-02T06:17:36;6.20;99.90
21612;DHT22;47005;52.292;13.452;2023-02-02T06:20:03;6.20;99.90
21612;DHT22;47005;52.292;13.452;2023-02-02T06:22:28;6.20;99.90
21612;DHT22;47005;52.292;13.452;2023-02-02T06:24:55;6.20;99.90
21612;DHT22;47005;52.292;13.452;2023-02-02T06:27:21;6.10;99.90
21612;DHT22;47005;52.292;13.452;2023-02-02T06:29:47;6.20;99.90
21612;DHT22;47005;52.292;13.452;2023-02-02T06:32:12;6.10;99.90
21612;DHT22;47005;52.292;13.452;2023-02-02T06:34:38;6.10;99.90
21612;DHT22;47005;52.292;13.452;2023-02-02T06:37:03;6.10;99.90
21612;DHT22;47005;52.292;13.452;2023-02-02T06:39:29;6.10;99.90
21612;DHT22;47005;52.292;13.452;2023-02-02T06:41:55;6.10;99.90
21612;DHT22;47005;52.292;13.452;2023-02-02T06:44:20;6.20;99.90
21612;DHT22;47005;52.292;13.452;2023-02-02T06:46:46;6.10;99.90
21612;DHT22;47005;52.292;13.452;2023-02-02T06:49:12;6.10;99.90
21612;DHT22;47005;52.292;13.452;2023-02-02T06:51:37;6.10;99.90
21612;DHT22;47005;52.292;13.452;2023-02-02T06:54:03;6.10;99.90
21612;DHT22;47005;52.292;13.452;2023-02-02T06:56:29;6.10;99.90
21612;DHT22;47005;52.292;13.452;2023-02-02T06:58:55;6.10;99.90
21612;DHT22;47005;52.292;13.452;2023-02-02T07:01:20;6.00;99.90
21612;DHT22;47005;52.292;13.452;2023-02-02T07:03:50;6.10;99.90
21612;DHT22;47005;52.292;13.452;2023-02-02T07:06:24;6.10;99.90
21612;DHT22;47005;52.292;13.452;2023-02-02T07:08:50;6.10;99.90
21612;DHT22;47005;52.292;13.452;2023-02-02T07:11:17;6.10;99.90
21612;DHT22;47005;52.292;13.452;2023-02-02T07:13:43;6.10;99.90
21612;DHT22;47005;52.292;13.452;2023-02-02T07:16:09;6.10;99.90
21612;DHT22;47005;52.292;13.452;2023-02-02T07:18:37;6.10;99.90
21612;DHT22;47005;52.292;13.452;2023-02-02T07:21:04;6.10;99.90
21612;DHT22;47005;52.292;13.452;2023-02-02T07:23:31;6.10;99.90
21612;DHT22;47005;52.292;13.452;2023-02-02T07:26:06;6.10;99.90
21612;DHT22;47005;52.292;13.452;2023-02-02T07:28:33;6.10;99.90
21612;DHT22;47005;52.292;13.452;2023-02-02T07:30:59;6.10;99.90
21612;DHT22;47005;52.292;13.452;2023-02-02T07:33:25;6.10;99.90
21612;DHT22;47005;52.292;13.452;2023-02-02T07:35:51;6.10;99.90
21612;DHT22;47005;52.292;13.452;2023-02-02T07:38:17;6.10;99.90
21612;DHT22;47005;52.292;13.452;2023-02-02T07:40:43;6.10;99.90
21612;DHT22;47005;52.292;13.452;2023-02-02T07:43:09;6.20;99.90
21612;DHT22;47005;52.292;13.452;2023-02-02T07:45:35;6.10;99.90
21612;DHT22;47005;52.292;13.452;2023-02-02T07:48:01;6.10;99.90
21612;DHT22;47005;52.292;13.452;2023-02-02T07:50:28;6.20;99.90
21612;DHT22;47005;52.292;13.452;2023-02-02T07:52:55;6.20;99.90
21612;DHT22;47005;52.292;13.452;2023-02-02T07:55:20;6.20;99.90
21612;DHT22;47005;52.292;13.452;2023-02-02T07:57:46;6.20;99.90
21612;DHT22;47005;52.292;13.452;2023-02-02T08:00:12;6.20;99.90
21612;DHT22;47005;52.292;13.452;2023-02-02T08:02:38;6.20;99.90
21612;DHT22;47005;52.292;13.452;2023-02-02T08:05:04;6.20;99.90
21612;DHT22;47005;52.292;13.452;2023-02-02T08:07:33;6.20;99.90
21612;DHT22;47005;52.292;13.452;2023-02-02T08:09:59;6.30;99.90
21612;DHT22;47005;52.292;13.452;2023-02-02T08:12:24;6.30;99.90
21612;DHT22;47005;52.292;13.452;2023-02-02T08:14:51;6.30;99.90
21612;DHT22;47005;52.292;13.452;2023-02-02T08:17:16;6.40;99.90
21612;DHT22;47005;52.292;13.452;2023-02-02T08:19:42;6.30;99.90
21612;DHT22;47005;52.292;13.452;2023-02-02T08:22:07;6.30;99.90
21612;DHT22;47005;52.292;13.452;2023-02-02T08:24:33;6.40;99.90
21612;DHT22;47005;52.292;13.452;2023-02-02T08:26:59;6.40;99.90
21612;DHT22;47005;52.292;13.452;2023-02-02T08:29:24;6.40;99.90
21612;DHT22;47005;52.292;13.452;2023-02-02T08:31:50;6.40;99.90
21612;DHT22;47005;52.292;13.452;2023-02-02T08:34:15;6.40;99.90
21612;DHT22;47005;52.292;13.452;2023-02-02T08:36:41;6.50;99.90
21612;DHT22;47005;52.292;13.452;2023-02-02T08:39:10;6.40;99.90
21612;DHT22;47005;52.292;13.452;2023-02-02T08:41:36;6.40;99.90
21612;DHT22;47005;52.292;13.452;2023-02-02T08:44:10;6.50;99.90
21612;DHT22;47005;52.292;13.452;2023-02-02T08:46:36;6.40;99.90
21612;DHT22;47005;52.292;13.452;2023-02-02T08:49:02;6.40;99.90
21612;DHT22;47005;52.292;13.452;2023-02-02T08:51:27;6.50;99.90
21612;DHT22;47005;52.292;13.452;2023-02-02T08:53:53;6.40;99.90
21612;DHT22;47005;52.292;13.452;2023-02-02T08:56:20;6.50;99.90
21612;DHT22;47005;52.292;13.452;2023-02-02T08:58:50;6.50;99.90
21612;DHT22;47005;52.292;13.452;2023-02-02T09:01:22;6.40;99.90
21612;DHT22;47005;52.292;13.452;2023-02-02T09:03:51;6.40;99.90
21612;DHT22;47005;52.292;13.452;2023-02-02T09:06:18;6.40;99.90
21612;DHT22;47005;52.292;13.452;2023-02-02T09:08:45;6.40;99.90
21612;DHT22;47005;52.292;13.452;2023-02-02T09:11:16;6.40;99.90
21612;DHT22;47005;52.292;13.452;2023-02-02T09:13:44;6.40;99.90
21612;DHT22;47005;52.292;13.452;2023-02-02T09:16:11;6.40;99.90
21612;DHT22;47005;52.292;13.452;2023-02-02T09:18:38;6.40;99.90
21612;DHT22;47005;52.292;13.452;2023-02-02T09:21:05;6.40;99.90
21612;DHT22;47005;52.292;13.452;2023-02-02T09:23:34;6.40;99.90
21612;DHT22;47005;52.292;13.452;2023-02-02T09:26:09;6.40;99.90
21612;DHT22;47005;52.292;13.452;2023-02-02T09:28:36;6.40;99.90
21612;DHT22;47005;52.292;13.452;2023-02-02T09:31:02;6.40;99.90
21612;DHT22;47005;52.292;13.452;2023-02-02T09:33:28;6.50;99.90
21612;DHT22;47005;52.292;13.452;2023-02-02T09:35:54;6.50;99.90
21612;DHT22;47005;52.292;13.452;2023-02-02T09:38:19;6.50;99.90
21612;DHT22;47005;52.292;13.452;2023-02-02T09:40:45;6.50;99.90
21612;DHT22;47005;52.292;13.452;2023-02-02T09:51:13;6.70;99.90
21612;DHT22;47005;52.292;13.452;2023-02-02T09:53:51;6.70;99.90
21612;DHT22;47005;52.292;13.452;2023-02-02T09:56:31;6.70;99.90
21612;DHT22;47005;52.292;13.452;2023-02-02T09:59:00;6.70;99.90
21612;DHT22;47005;52.292;13.452;2023-02-02T10:01:32;6.80;99.90
21612;DHT22;47005;52.292;13.452;2023-02-02T10:04:20;6.80;99.90
21612;DHT22;47005;52.292;13.452;2023-02-02T10:06:50;6.80;99.90
21612;DHT22;47005;52.292;13.452;2023-02-02T10:09:30;6.80;99.90
21612;DHT22;47005;52.292;13.452;2023-02-02T10:14:44;6.90;99.90
21612;DHT22;47005;52.292;13.452;2023-02-02T10:19:58;6.90;99.90
21612;DHT22;47005;52.292;13.452;2023-02-02T10:22:28;6.90;99.90
21612;DHT22;47005;52.292;13.452;2023-02-02T10:24:56;7.00;99.90
21612;DHT22;47005;52.292;13.452;2023-02-02T10:27:39;7.00;99.90
21612;DHT22;47005;52.292;13.452;2023-02-02T10:30:19;7.00;99.90
21612;DHT22;47005;52.292;13.452;2023-02-02T10:33:13;7.10;99.90
21612;DHT22;47005;52.292;13.452;2023-02-02T10:35:40;7.00;99.90
21612;DHT22;47005;52.292;13.452;2023-02-02T10:41:32;7.10;99.90
21612;DHT22;47005;52.292;13.452;2023-02-02T10:44:21;7.20;99.90
21612;DHT22;47005;52.292;13.452;2023-02-02T10:46:52;7.20;99.90
21612;DHT22;47005;52.292;13.452;2023-02-02T10:49:39;7.20;99.90
21612;DHT22;47005;52.292;13.452;2023-02-02T10:52:21;7.20;99.90
21612;DHT22;47005;52.292;13.452;2023-02-02T10:57:52;7.30;99.90
21612;DHT22;47005;52.292;13.452;2023-02-02T11:03:12;7.30;99.90
21612;DHT22;47005;52.292;13.452;2023-02-02T11:05:38;7.30;99.90
21612;DHT22;47005;52.292;13.452;2023-02-02T11:08:43;7.30;99.90
21612;DHT22;47005;52.292;13.452;2023-02-02T11:11:23;7.30;99.90
21612;DHT22;47005;52.292;13.452;2023-02-02T11:14:01;7.30;99.90
21612;DHT22;47005;52.292;13.452;2023-02-02T11:16:30;7.40;99.90
21612;DHT22;47005;52.292;13.452;2023-02-02T11:18:56;7.40;99.90
21612;DHT22;47005;52.292;13.452;2023-02-02T11:21:30;7.40;99.90
21612;DHT22;47005;52.292;13.452;2023-02-02T11:24:02;7.40;99.90
21612;DHT22;47005;52.292;13.452;2023-02-02T11:26:49;7.40;99.90
21612;DHT22;47005;52.292;13.452;2023-02-02T11:29:18;7.50;99.90
21612;DHT22;47005;52.292;13.452;2023-02-02T11:31:46;7.50;99.90
21612;DHT22;47005;52.292;13.452;2023-02-02T11:34:20;7.50;99.90
21612;DHT22;47005;52.292;13.452;2023-02-02T11:37:14;7.50;99.90
21612;DHT22;47005;52.292;13.452;2023-02-02T11:39:44;7.60;99.90
21612;DHT22;47005;52.292;13.452;2023-02-02T11:42:23;7.60;99.90
21612;DHT22;47005;52.292;13.452;2023-02-02T11:44:55;7.60;99.90
21612;DHT22;47005;52.292;13.452;2023-02-02T11:47:27;7.60;99.90
21612;DHT22;47005;52.292;13.452;2023-02-02T11:49:54;7.60;99.90
21612;DHT22;47005;52.292;13.452;2023-02-02T11:52:22;7.60;99.90
21612;DHT22;47005;52.292;13.452;2023-02-02T11:54:51;7.60;99.90
21612;DHT22;47005;52.292;13.452;2023-02-02T11:57:20;7.70;99.90
21612;DHT22;47005;52.292;13.452;2023-02-02T11:59:49;7.70;99.90
21612;DHT22;47005;52.292;13.452;2023-02-02T12:02:29;7.70;99.90
21612;DHT22;47005;52.292;13.452;2023-02-02T12:07:48;7.80;99.90
21612;DHT22;47005;52.292;13.452;2023-02-02T12:24:28;7.80;99.90
21612;DHT22;47005;52.292;13.452;2023-02-02T12:30:05;7.80;99.90
21612;DHT22;47005;52.292;13.452;2023-02-02T12:35:50;7.80;99.90
21612;DHT22;47005;52.292;13.452;2023-02-02T12:38:42;7.80;99.90
21612;DHT22;47005;52.292;13.452;2023-02-02T12:46:53;7.90;99.90
21612;DHT22;47005;52.292;13.452;2023-02-02T13:09:02;7.50;99.90
21612;DHT22;47005;52.292;13.452;2023-02-02T13:16:36;7.40;99.90
21612;DHT22;47005;52.292;13.452;2023-02-02T13:19:08;7.40;99.90
21612;DHT22;47005;52.292;13.452;2023-02-02T13:21:37;7.30;99.90
21612;DHT22;47005;52.292;13.452;2023-02-02T13:24:05;7.30;99.90
21612;DHT22;47005;52.292;13.452;2023-02-02T13:26:41;7.30;99.90
21612;DHT22;47005;52.292;13.452;2023-02-02T13:34:44;7.20;99.90
21612;DHT22;47005;52.292;13.452;2023-02-02T13:39:55;7.20;99.90
21612;DHT22;47005;52.292;13.452;2023-02-02T13:42:47;7.10;99.90
21612;DHT22;47005;52.292;13.452;2023-02-02T13:51:20;7.20;99.90
21612;DHT22;47005;52.292;13.452;2023-02-02T13:56:56;7.30;99.90
21612;DHT22;47005;52.292;13.452;2023-02-02T14:02:00;7.30;99.90
21612;DHT22;47005;52.292;13.452;2023-02-02T14:04:28;7.40;99.90
21612;DHT22;47005;52.292;13.452;2023-02-02T14:07:03;7.40;99.90
21612;DHT22;47005;52.292;13.452;2023-02-02T14:09:35;7.40;99.90
21612;DHT22;47005;52.292;13.452;2023-02-02T14:12:04;7.40;99.90
21612;DHT22;47005;52.292;13.452;2023-02-02T14:14:35;7.40;99.90
21612;DHT22;47005;52.292;13.452;2023-02-02T14:22:07;7.30;99.90
21612;DHT22;47005;52.292;13.452;2023-02-02T14:24:47;7.30;99.90
21612;DHT22;47005;52.292;13.452;2023-02-02T14:32:27;7.30;99.90
21612;DHT22;47005;52.292;13.452;2023-02-02T14:37:48;7.30;99.90
21612;DHT22;47005;52.292;13.452;2023-02-02T14:46:21;7.20;99.90
21612;DHT22;47005;52.292;13.452;2023-02-02T14:49:11;7.20;99.90
21612;DHT22;47005;52.292;13.452;2023-02-02T14:51:53;7.10;99.90
21612;DHT22;47005;52.292;13.452;2023-02-02T14:54:23;7.10;99.90
21612;DHT22;47005;52.292;13.452;2023-02-02T14:56:54;7.10;99.90
21612;DHT22;47005;52.292;13.452;2023-02-02T15:04:37;7.10;99.90
21612;DHT22;47005;52.292;13.452;2023-02-02T15:09:48;7.10;99.90
21612;DHT22;47005;52.292;13.452;2023-02-02T15:23:00;7.00;99.90
21612;DHT22;47005;52.292;13.452;2023-02-02T15:25:49;7.00;99.90
21612;DHT22;47005;52.292;13.452;2023-02-02T15:28:42;7.00;99.90
21612;DHT22;47005;52.292;13.452;2023-02-02T15:31:46;7.00;99.90
21612;DHT22;47005;52.292;13.452;2023-02-02T15:34:37;7.00;99.90
21612;DHT22;47005;52.292;13.452;2023-02-02T15:37:07;7.00;99.90
21612;DHT22;47005;52.292;13.452;2023-02-02T15:39:36;7.00;99.90
21612;DHT22;47005;52.292;13.452;2023-02-02T15:42:11;6.90;99.90
21612;DHT22;47005;52.292;13.452;2023-02-02T15:44:56;6.90;99.90
21612;DHT22;47005;52.292;13.452;2023-02-02T15:47:31;6.90;99.90
21612;DHT22;47005;52.292;13.452;2023-02-02T15:49:58;6.90;99.90
21612;DHT22;47005;52.292;13.452;2023-02-02T15:52:29;6.80;99.90
21612;DHT22;47005;52.292;13.452;2023-02-02T15:55:00;6.80;99.90
21612;DHT22;47005;52.292;13.452;2023-02-02T15:57:34;6.80;99.90
21612;DHT22;47005;52.292;13.452;2023-02-02T16:00:33;6.80;99.90
21612;DHT22;47005;52.292;13.452;2023-02-02T16:08:00;6.70;99.90
21612;DHT22;47005;52.292;13.452;2023-02-02T16:10:26;6.70;99.90
21612;DHT22;47005;52.292;13.452;2023-02-02T16:12:52;6.70;99.90
21612;DHT22;47005;52.292;13.452;2023-02-02T16:15:24;6.70;99.90
21612;DHT22;47005;52.292;13.452;2023-02-02T16:18:04;6.70;99.90
21612;DHT22;47005;52.292;13.452;2023-02-02T16:20:34;6.60;99.90
21612;DHT22;47005;52.292;13.452;2023-02-02T16:23:02;6.60;99.90
21612;DHT22;47005;52.292;13.452;2023-02-02T16:25:35;6.50;99.90
21612;DHT22;47005;52.292;13.452;2023-02-02T16:28:03;6.50;99.90
21612;DHT22;47005;52.292;13.452;2023-02-02T16:30:37;6.50;99.90
21612;DHT22;47005;52.292;13.452;2023-02-02T16:33:29;6.40;99.90
21612;DHT22;47005;52.292;13.452;2023-02-02T16:35:55;6.40;99.90
21612;DHT22;47005;52.292;13.452;2023-02-02T16:38:35;6.40;99.90
21612;DHT22;47005;52.292;13.452;2023-02-02T16:41:07;6.30;99.90
21612;DHT22;47005;52.292;13.452;2023-02-02T16:43:34;6.30;99.90
21612;DHT22;47005;52.292;13.452;2023-02-02T16:46:02;6.20;99.90
21612;DHT22;47005;52.292;13.452;2023-02-02T16:53:35;6.10;99.90
21612;DHT22;47005;52.292;13.452;2023-02-02T16:56:03;6.10;99.90
21612;DHT22;47005;52.292;13.452;2023-02-02T16:58:29;6.10;99.90
21612;DHT22;47005;52.292;13.452;2023-02-02T17:01:07;6.10;99.90
21612;DHT22;47005;52.292;13.452;2023-02-02T17:03:35;6.00;99.90
21612;DHT22;47005;52.292;13.452;2023-02-02T17:06:03;6.00;99.90
21612;DHT22;47005;52.292;13.452;2023-02-02T17:08:34;6.00;99.90
21612;DHT22;47005;52.292;13.452;2023-02-02T17:11:22;5.90;99.90
21612;DHT22;47005;52.292;13.452;2023-02-02T17:13:49;5.90;99.90
21612;DHT22;47005;52.292;13.452;2023-02-02T17:16:18;5.90;99.90
21612;DHT22;47005;52.292;13.452;2023-02-02T17:18:44;5.90;99.90
21612;DHT22;47005;52.292;13.452;2023-02-02T17:21:23;5.80;99.90
21612;DHT22;47005;52.292;13.452;2023-02-02T17:23:50;5.80;99.90
21612;DHT22;47005;52.292;13.452;2023-02-02T17:26:18;5.80;99.90
21612;DHT22;47005;52.292;13.452;2023-02-02T17:28:44;5.70;99.90
21612;DHT22;47005;52.292;13.452;2023-02-02T17:31:12;5.70;99.90
21612;DHT22;47005;52.292;13.452;2023-02-02T17:33:39;5.70;99.90
21612;DHT22;47005;52.292;13.452;2023-02-02T17:36:06;5.60;99.90
21612;DHT22;47005;52.292;13.452;2023-02-02T17:38:32;5.60;99.90
21612;DHT22;47005;52.292;13.452;2023-02-02T17:40:59;5.60;99.90
21612;DHT22;47005;52.292;13.452;2023-02-02T17:43:26;5.60;99.90
21612;DHT22;47005;52.292;13.452;2023-02-02T17:45:52;5.50;99.90
21612;DHT22;47005;52.292;13.452;2023-02-02T17:48:18;5.50;99.90
21612;DHT22;47005;52.292;13.452;2023-02-02T17:50:45;5.50;99.90
21612;DHT22;47005;52.292;13.452;2023-02-02T17:53:12;5.50;99.90
21612;DHT22;47005;52.292;13.452;2023-02-02T17:55:40;5.40;99.90
21612;DHT22;47005;52.292;13.452;2023-02-02T17:58:09;5.40;99.90
21612;DHT22;47005;52.292;13.452;2023-02-02T18:00:38;5.40;99.90
21612;DHT22;47005;52.292;13.452;2023-02-02T18:03:26;5.40;99.90
21612;DHT22;47005;52.292;13.452;2023-02-02T18:05:52;5.30;99.90
21612;DHT22;47005;52.292;13.452;2023-02-02T18:08:18;5.40;99.90
21612;DHT22;47005;52.292;13.452;2023-02-02T18:10:44;5.30;99.90
21612;DHT22;47005;52.292;13.452;2023-02-02T18:13:17;5.30;99.90
21612;DHT22;47005;52.292;13.452;2023-02-02T18:15:44;5.20;99.90
21612;DHT22;47005;52.292;13.452;2023-02-02T18:18:10;5.20;99.90
21612;DHT22;47005;52.292;13.452;2023-02-02T18:20:43;5.20;99.90
21612;DHT22;47005;52.292;13.452;2023-02-02T18:23:09;5.20;99.90
21612;DHT22;47005;52.292;13.452;2023-02-02T18:25:36;5.20;99.90
21612;DHT22;47005;52.292;13.452;2023-02-02T18:28:02;5.20;99.90
21612;DHT22;47005;52.292;13.452;2023-02-02T18:30:28;5.20;99.90
21612;DHT22;47005;52.292;13.452;2023-02-02T18:32:54;5.10;99.90
21612;DHT22;47005;52.292;13.452;2023-02-02T18:35:20;5.10;99.90
21612;DHT22;47005;52.292;13.452;2023-02-02T18:37:45;5.10;99.90
21612;DHT22;47005;52.292;13.452;2023-02-02T18:40:13;5.10;99.90